createdAt,value
2022-12-03T00:03:21.530Z,81.70
2022-12-03T00:08:24.091Z,81.78
2022-12-03T00:13:26.556Z,81.95
2022-12-03T00:25:28.496Z,81.80
2022-12-03T00:30:33.396Z,82.03
2022-12-03T00:35:35.865Z,82.24
2022-12-03T00:40:38.453Z,82.21
2022-12-03T00:45:40.946Z,82.54
2022-12-03T00:50:43.446Z,82.69
2022-12-03T00:55:45.983Z,82.90
2022-12-03T01:00:48.504Z,82.61
2022-12-03T01:05:51.003Z,82.86
2022-12-03T01:10:53.511Z,83.02
2022-12-03T01:15:56.164Z,83.15
2022-12-03T01:20:58.723Z,83.05
2022-12-03T01:26:01.220Z,83.27
2022-12-03T01:31:06.769Z,83.40
2022-12-03T01:36:09.476Z,83.57
2022-12-03T01:41:12.197Z,83.68
2022-12-03T01:46:19.470Z,83.94
2022-12-03T01:51:22.212Z,83.78
2022-12-03T01:56:27.202Z,83.84
2022-12-03T02:01:29.889Z,83.95
2022-12-03T02:06:32.507Z,84.00
2022-12-03T02:11:38.707Z,84.13
2022-12-03T02:16:42.327Z,84.38
2022-12-03T02:21:50.728Z,84.37
2022-12-03T02:26:53.254Z,84.70
2022-12-03T02:31:56.204Z,84.76
2022-12-03T02:36:59.368Z,84.75
2022-12-03T02:42:04.901Z,84.54
2022-12-03T02:47:07.638Z,84.75
2022-12-03T02:52:10.734Z,84.84
2022-12-03T02:57:13.387Z,84.63
2022-12-03T03:02:16.371Z,84.76
2022-12-03T03:07:18.967Z,84.77
2022-12-03T03:12:21.474Z,84.51
2022-12-03T03:17:24.522Z,84.72
2022-12-03T03:22:38.711Z,84.92
2022-12-03T03:27:41.997Z,84.78
2022-12-03T03:32:44.692Z,84.86
2022-12-03T03:37:47.221Z,84.86
2022-12-03T03:42:49.788Z,84.89
2022-12-03T03:47:53.460Z,85.08
2022-12-03T03:52:57.283Z,85.05
2022-12-03T03:58:00.057Z,85.25
2022-12-03T04:03:05.275Z,85.20
2022-12-03T04:08:07.873Z,84.92
2022-12-03T04:13:10.424Z,85.01
2022-12-03T04:18:16.046Z,84.55
2022-12-03T04:23:18.528Z,84.64
2022-12-03T04:28:24.035Z,84.88
2022-12-03T04:33:29.505Z,84.79
2022-12-03T04:38:32.019Z,84.91
2022-12-03T04:43:34.833Z,84.91
2022-12-03T04:48:37.352Z,85.31
2022-12-03T04:53:45.976Z,85.33
2022-12-03T04:58:48.737Z,85.13
2022-12-03T05:03:51.237Z,85.27
2022-12-03T05:08:53.713Z,85.45
2022-12-03T05:13:56.258Z,85.64
2022-12-03T05:18:58.807Z,85.77
2022-12-03T05:24:01.974Z,85.87
2022-12-03T05:29:04.471Z,85.74
2022-12-03T05:34:07.029Z,85.82
2022-12-03T05:39:09.518Z,85.84
2022-12-03T05:44:16.130Z,85.90
2022-12-03T05:49:21.501Z,85.70
2022-12-03T05:54:24.085Z,85.77
2022-12-03T05:59:26.614Z,85.88
2022-12-03T06:04:29.135Z,85.66
2022-12-03T06:09:31.617Z,85.97
2022-12-03T06:14:35.532Z,85.84
2022-12-03T06:19:38.071Z,85.80
2022-12-03T06:24:40.614Z,85.59
2022-12-03T06:29:43.166Z,85.86
2022-12-03T06:34:45.721Z,85.82
2022-12-03T06:39:48.254Z,85.85
2022-12-03T06:44:51.115Z,86.23
2022-12-03T06:49:54.165Z,86.09
2022-12-03T06:54:56.857Z,86.29
2022-12-03T06:59:59.436Z,85.96
2022-12-03T07:05:02.239Z,85.99
2022-12-03T07:10:05.514Z,86.20
2022-12-03T07:15:08.438Z,85.93
2022-12-03T07:20:11.527Z,85.55
2022-12-03T07:25:19.532Z,85.17
2022-12-03T07:30:27.604Z,85.52
2022-12-03T07:35:30.183Z,85.50
2022-12-03T07:40:32.664Z,85.25
2022-12-03T07:45:35.107Z,84.79
2022-12-03T07:50:37.741Z,85.06
2022-12-03T07:55:42.642Z,84.53
2022-12-03T08:00:45.300Z,84.58
2022-12-03T08:05:47.817Z,84.37
2022-12-03T08:10:50.352Z,84.67
2022-12-03T08:15:52.977Z,84.64
2022-12-03T08:20:55.592Z,84.47
2022-12-03T08:26:01.979Z,84.48
2022-12-03T08:31:18.465Z,83.95
2022-12-03T08:36:29.136Z,84.07
2022-12-03T08:41:34.554Z,84.15
2022-12-03T08:46:37.115Z,83.82
2022-12-03T08:51:39.601Z,83.75
2022-12-03T08:56:44.787Z,83.44
2022-12-03T09:01:48.828Z,83.78
2022-12-03T09:06:52.738Z,83.29
2022-12-03T09:11:55.549Z,83.33
2022-12-03T09:16:58.236Z,83.71
2022-12-03T09:22:00.881Z,83.80
2022-12-03T09:27:03.682Z,83.00
2022-12-03T09:32:06.275Z,83.14
2022-12-03T09:37:09.607Z,83.52
2022-12-03T09:42:12.126Z,83.37
2022-12-03T09:47:14.636Z,82.84
2022-12-03T09:52:24.265Z,82.72
2022-12-03T09:57:28.120Z,82.84
2022-12-03T10:02:30.789Z,82.21
2022-12-03T10:07:33.427Z,81.90
2022-12-03T10:12:35.961Z,81.32
2022-12-03T10:17:38.455Z,82.04
2022-12-03T10:23:55.078Z,81.89
2022-12-03T10:28:57.935Z,81.75
2022-12-03T10:34:00.416Z,81.05
2022-12-03T10:39:16.793Z,81.17
2022-12-03T10:44:22.016Z,80.65
2022-12-03T10:49:24.601Z,80.92
2022-12-03T10:54:28.570Z,81.12
2022-12-03T10:59:33.750Z,80.53
2022-12-03T11:04:36.888Z,81.29
2022-12-03T11:09:42.450Z,81.43
2022-12-03T11:14:48.864Z,81.19
2022-12-03T11:19:52.176Z,81.37
2022-12-03T11:25:00.565Z,81.67
2022-12-03T11:30:03.394Z,81.72
2022-12-03T11:35:12.399Z,81.90
2022-12-03T11:40:15.954Z,82.28
2022-12-03T11:45:23.166Z,82.07
2022-12-03T11:50:39.464Z,81.84
2022-12-03T11:55:48.882Z,82.07
2022-12-03T12:00:56.177Z,82.11
2022-12-03T12:06:19.372Z,82.19
2022-12-03T12:11:27.730Z,82.56
2022-12-03T12:16:36.685Z,82.61
2022-12-03T12:22:15.752Z,82.15
2022-12-03T12:27:21.447Z,82.60
2022-12-03T12:32:34.549Z,82.38
2022-12-03T12:37:47.632Z,83.05
2022-12-03T12:42:53.703Z,82.90
2022-12-03T12:48:04.264Z,82.64
2022-12-03T12:53:16.539Z,82.48
2022-12-03T12:58:20.289Z,82.75
2022-12-03T13:03:28.341Z,82.91
2022-12-03T13:08:37.319Z,82.70
2022-12-03T13:13:44.313Z,81.78
2022-12-03T13:18:49.898Z,80.68
2022-12-03T13:23:55.705Z,79.94
2022-12-03T13:28:59.577Z,79.05
2022-12-03T13:34:11.218Z,77.87
2022-12-03T13:39:21.217Z,78.52
2022-12-03T13:44:23.789Z,78.72
2022-12-03T13:49:26.737Z,79.47
2022-12-03T13:54:31.261Z,79.93
2022-12-03T13:59:33.776Z,80.55
2022-12-03T14:04:36.771Z,81.11
2022-12-03T14:09:39.229Z,81.30
2022-12-03T14:14:41.732Z,81.46
2022-12-03T14:19:44.773Z,81.94
2022-12-03T14:24:47.235Z,82.32
2022-12-03T14:29:50.029Z,82.35
2022-12-03T14:34:52.623Z,82.38
2022-12-03T14:39:55.241Z,82.94
2022-12-03T14:44:58.048Z,83.01
2022-12-03T14:50:00.840Z,83.20
2022-12-03T14:55:03.695Z,82.85
2022-12-03T15:00:07.089Z,82.91
2022-12-03T15:05:10.049Z,83.01
2022-12-03T15:10:12.560Z,83.17
2022-12-03T15:15:15.119Z,83.38
2022-12-03T15:20:17.625Z,83.72
2022-12-03T15:25:24.393Z,83.82
2022-12-03T15:30:26.916Z,84.26
2022-12-03T15:35:31.020Z,84.30
2022-12-03T15:40:33.501Z,84.90
2022-12-03T15:45:36.079Z,84.89
2022-12-03T15:50:40.429Z,85.00
2022-12-03T15:55:43.058Z,84.96
2022-12-03T16:00:45.546Z,85.02
2022-12-03T16:05:48.034Z,85.31
2022-12-03T16:10:50.653Z,85.53
2022-12-03T16:15:53.265Z,85.29
2022-12-03T16:20:55.907Z,85.28
2022-12-03T16:25:58.378Z,85.35
2022-12-03T16:31:32.898Z,85.20
2022-12-03T16:36:35.461Z,85.70
2022-12-03T16:41:38.023Z,85.85
2022-12-03T16:46:40.664Z,85.99
2022-12-03T16:51:45.563Z,85.98
2022-12-03T16:56:48.021Z,86.02
2022-12-03T17:01:50.632Z,86.43
2022-12-03T17:06:53.247Z,86.52
2022-12-03T17:11:55.763Z,86.44
2022-12-03T17:16:58.247Z,86.44
2022-12-03T17:22:00.830Z,86.29
2022-12-03T17:27:06.089Z,86.52
2022-12-03T17:32:08.874Z,86.74
2022-12-03T17:37:11.363Z,86.97
2022-12-03T17:42:13.959Z,87.19
2022-12-03T17:47:16.661Z,87.09
2022-12-03T17:52:19.191Z,87.37
2022-12-03T17:57:21.664Z,87.24
2022-12-03T18:02:24.122Z,87.23
2022-12-03T18:07:26.795Z,87.18
2022-12-03T18:12:29.489Z,87.34
2022-12-03T18:17:32.048Z,87.45
2022-12-03T18:22:34.956Z,87.55
2022-12-03T18:27:37.465Z,87.50
2022-12-03T18:32:42.415Z,87.59
2022-12-03T18:37:45.060Z,87.55
2022-12-03T18:42:50.163Z,88.17
2022-12-03T18:47:52.757Z,87.93
2022-12-03T18:52:55.304Z,87.79
2022-12-03T18:57:57.741Z,87.77
2022-12-03T19:03:03.561Z,87.86
2022-12-03T19:08:14.239Z,88.76
2022-12-03T19:13:16.864Z,88.96
2022-12-03T19:18:19.369Z,88.28
2022-12-03T19:23:21.860Z,88.33
2022-12-03T19:28:24.729Z,88.91
2022-12-03T19:33:28.795Z,88.81
2022-12-03T19:38:32.093Z,89.09
2022-12-03T19:43:36.418Z,89.04
2022-12-03T19:48:40.451Z,88.84
2022-12-03T19:53:43.261Z,89.11
2022-12-03T19:58:46.886Z,88.99
2022-12-03T20:03:52.305Z,89.03
2022-12-03T20:08:59.046Z,89.07
2022-12-03T20:14:07.117Z,89.23
2022-12-03T20:19:12.705Z,89.35
2022-12-03T20:24:17.659Z,89.47
2022-12-03T20:29:20.252Z,88.89
2022-12-03T20:34:22.720Z,89.02
2022-12-03T20:39:25.198Z,89.46
2022-12-03T20:44:27.706Z,89.45
2022-12-03T20:49:30.391Z,89.29
2022-12-03T20:54:32.876Z,89.50
2022-12-03T20:59:35.414Z,89.62
2022-12-03T21:04:37.880Z,89.59
2022-12-03T21:09:42.696Z,89.55
2022-12-03T21:14:45.271Z,89.45
2022-12-03T21:19:47.836Z,89.75
2022-12-03T21:24:50.329Z,89.50
2022-12-03T21:29:53.117Z,90.11
2022-12-03T21:34:55.744Z,90.08
2022-12-03T21:39:58.233Z,89.59
2022-12-03T21:45:00.773Z,89.67
2022-12-03T21:50:04.785Z,89.17
2022-12-03T21:55:07.627Z,89.56
2022-12-03T22:00:10.695Z,89.78
2022-12-03T22:05:13.494Z,89.81
2022-12-03T22:10:15.992Z,89.70
2022-12-03T22:15:19.572Z,90.03
2022-12-03T22:20:22.295Z,90.58
2022-12-03T22:25:24.792Z,90.51
2022-12-03T22:30:27.295Z,90.28
2022-12-03T22:35:29.766Z,90.50
2022-12-03T22:40:32.275Z,90.78
2022-12-03T22:45:35.169Z,90.99
2022-12-03T22:50:44.531Z,90.86
2022-12-03T22:55:52.906Z,90.75
2022-12-03T23:01:01.215Z,90.60
2022-12-03T23:06:09.379Z,90.59
2022-12-03T23:11:13.031Z,90.70
2022-12-03T23:16:19.585Z,91.08
2022-12-03T23:21:29.332Z,90.86
2022-12-03T23:26:36.609Z,90.75
2022-12-03T23:31:39.143Z,91.33
2022-12-03T23:36:41.659Z,91.08
2022-12-03T23:41:44.271Z,91.25
2022-12-03T23:46:46.861Z,91.16
2022-12-03T23:51:49.469Z,91.42
2022-12-03T23:56:51.911Z,91.49
